sensor_id;sensor_type;location;lat;lon;timestamp;P1;durP1;ratioP1;P2;durP2;ratioP2
85312;SDS011;75717;50.496;7.560;2024-03-22T00:00:10;32.27;;;13.60;;
85312;SDS011;75717;50.496;7.560;2024-03-22T00:02:36;32.20;;;13.43;;
85312;SDS011;75717;50.496;7.560;2024-03-22T00:05:02;33.78;;;14.13;;
85312;SDS011;75717;50.496;7.560;2024-03-22T00:07:28;31.45;;;13.73;;
85312;SDS011;75717;50.496;7.560;2024-03-22T00:09:53;31.97;;;13.40;;
85312;SDS011;75717;50.496;7.560;2024-03-22T00:12:19;30.80;;;13.53;;
85312;SDS011;75717;50.496;7.560;2024-03-22T00:14:44;30.67;;;14.50;;
85312;SDS011;75717;50.496;7.560;2024-03-22T00:17:09;31.57;;;13.93;;
85312;SDS011;75717;50.496;7.560;2024-03-22T00:19:35;32.60;;;13.75;;
85312;SDS011;75717;50.496;7.560;2024-03-22T00:22:00;31.47;;;13.50;;
85312;SDS011;75717;50.496;7.560;2024-03-22T00:24:25;34.80;;;13.98;;
85312;SDS011;75717;50.496;7.560;2024-03-22T00:26:50;32.47;;;14.83;;
85312;SDS011;75717;50.496;7.560;2024-03-22T00:29:16;30.83;;;13.82;;
85312;SDS011;75717;50.496;7.560;2024-03-22T00:31:41;30.80;;;12.53;;
85312;SDS011;75717;50.496;7.560;2024-03-22T00:34:06;33.40;;;13.33;;
85312;SDS011;75717;50.496;7.560;2024-03-22T00:36:32;31.88;;;13.98;;
85312;SDS011;75717;50.496;7.560;2024-03-22T00:38:58;36.05;;;15.20;;
85312;SDS011;75717;50.496;7.560;2024-03-22T00:41:23;38.47;;;13.40;;
85312;SDS011;75717;50.496;7.560;2024-03-22T00:43:48;31.20;;;14.23;;
85312;SDS011;75717;50.496;7.560;2024-03-22T00:46:14;27.80;;;13.43;;
85312;SDS011;75717;50.496;7.560;2024-03-22T00:48:39;33.30;;;13.63;;
85312;SDS011;75717;50.496;7.560;2024-03-22T00:51:04;33.90;;;15.07;;
85312;SDS011;75717;50.496;7.560;2024-03-22T00:53:30;30.65;;;12.77;;
85312;SDS011;75717;50.496;7.560;2024-03-22T00:55:55;28.85;;;12.32;;
85312;SDS011;75717;50.496;7.560;2024-03-22T00:58:21;34.88;;;13.07;;
85312;SDS011;75717;50.496;7.560;2024-03-22T01:00:46;30.63;;;13.82;;
85312;SDS011;75717;50.496;7.560;2024-03-22T01:03:11;29.80;;;12.93;;
85312;SDS011;75717;50.496;7.560;2024-03-22T01:05:37;28.27;;;12.37;;
85312;SDS011;75717;50.496;7.560;2024-03-22T01:08:02;28.80;;;11.53;;
85312;SDS011;75717;50.496;7.560;2024-03-22T01:10:27;26.58;;;12.05;;
85312;SDS011;75717;50.496;7.560;2024-03-22T01:12:53;25.63;;;10.73;;
85312;SDS011;75717;50.496;7.560;2024-03-22T01:15:18;24.52;;;10.80;;
85312;SDS011;75717;50.496;7.560;2024-03-22T01:17:44;21.77;;;10.57;;
85312;SDS011;75717;50.496;7.560;2024-03-22T01:20:09;24.53;;;9.90;;
85312;SDS011;75717;50.496;7.560;2024-03-22T01:22:35;23.42;;;10.93;;
85312;SDS011;75717;50.496;7.560;2024-03-22T01:25:01;28.08;;;10.13;;
85312;SDS011;75717;50.496;7.560;2024-03-22T01:27:26;23.50;;;9.98;;
85312;SDS011;75717;50.496;7.560;2024-03-22T01:29:52;24.48;;;10.88;;
85312;SDS011;75717;50.496;7.560;2024-03-22T01:32:17;21.37;;;9.83;;
85312;SDS011;75717;50.496;7.560;2024-03-22T01:34:42;19.47;;;8.90;;
85312;SDS011;75717;50.496;7.560;2024-03-22T01:37:08;19.87;;;9.87;;
85312;SDS011;75717;50.496;7.560;2024-03-22T01:39:33;20.23;;;8.95;;
85312;SDS011;75717;50.496;7.560;2024-03-22T01:41:59;19.20;;;8.33;;
85312;SDS011;75717;50.496;7.560;2024-03-22T01:44:27;18.90;;;8.00;;
85312;SDS011;75717;50.496;7.560;2024-03-22T01:46:53;18.50;;;8.43;;
85312;SDS011;75717;50.496;7.560;2024-03-22T01:49:18;19.05;;;7.45;;
85312;SDS011;75717;50.496;7.560;2024-03-22T01:51:44;18.33;;;8.35;;
85312;SDS011;75717;50.496;7.560;2024-03-22T01:54:09;21.70;;;8.40;;
85312;SDS011;75717;50.496;7.560;2024-03-22T01:56:38;18.40;;;8.23;;
85312;SDS011;75717;50.496;7.560;2024-03-22T01:59:04;22.50;;;9.00;;
85312;SDS011;75717;50.496;7.560;2024-03-22T02:01:30;17.60;;;8.27;;
85312;SDS011;75717;50.496;7.560;2024-03-22T02:03:56;22.02;;;9.05;;
85312;SDS011;75717;50.496;7.560;2024-03-22T02:06:21;20.42;;;8.45;;
85312;SDS011;75717;50.496;7.560;2024-03-22T02:08:46;22.50;;;8.48;;
85312;SDS011;75717;50.496;7.560;2024-03-22T02:11:12;23.42;;;9.20;;
85312;SDS011;75717;50.496;7.560;2024-03-22T02:13:38;21.55;;;8.68;;
85312;SDS011;75717;50.496;7.560;2024-03-22T02:16:03;18.37;;;8.60;;
85312;SDS011;75717;50.496;7.560;2024-03-22T02:18:29;24.48;;;9.68;;
85312;SDS011;75717;50.496;7.560;2024-03-22T02:20:56;21.70;;;9.60;;
85312;SDS011;75717;50.496;7.560;2024-03-22T02:23:37;19.67;;;9.30;;
85312;SDS011;75717;50.496;7.560;2024-03-22T02:26:03;21.02;;;9.00;;
85312;SDS011;75717;50.496;7.560;2024-03-22T02:28:29;21.98;;;9.68;;
85312;SDS011;75717;50.496;7.560;2024-03-22T02:30:56;24.00;;;9.68;;
85312;SDS011;75717;50.496;7.560;2024-03-22T02:33:22;23.60;;;10.05;;
85312;SDS011;75717;50.496;7.560;2024-03-22T02:35:47;22.97;;;10.57;;
85312;SDS011;75717;50.496;7.560;2024-03-22T02:38:13;25.55;;;10.27;;
85312;SDS011;75717;50.496;7.560;2024-03-22T02:40:38;23.83;;;10.95;;
85312;SDS011;75717;50.496;7.560;2024-03-22T02:43:04;28.27;;;10.60;;
85312;SDS011;75717;50.496;7.560;2024-03-22T02:45:29;22.97;;;10.37;;
85312;SDS011;75717;50.496;7.560;2024-03-22T02:47:55;27.15;;;10.63;;
85312;SDS011;75717;50.496;7.560;2024-03-22T02:50:21;23.70;;;9.15;;
85312;SDS011;75717;50.496;7.560;2024-03-22T02:52:47;24.93;;;9.67;;
85312;SDS011;75717;50.496;7.560;2024-03-22T02:55:13;26.88;;;9.63;;
85312;SDS011;75717;50.496;7.560;2024-03-22T02:57:38;22.70;;;9.65;;
85312;SDS011;75717;50.496;7.560;2024-03-22T03:00:04;20.73;;;9.77;;
85312;SDS011;75717;50.496;7.560;2024-03-22T03:02:30;28.35;;;10.05;;
85312;SDS011;75717;50.496;7.560;2024-03-22T03:04:55;24.85;;;10.50;;
85312;SDS011;75717;50.496;7.560;2024-03-22T03:07:20;23.97;;;10.33;;
85312;SDS011;75717;50.496;7.560;2024-03-22T03:09:45;26.63;;;10.57;;
85312;SDS011;75717;50.496;7.560;2024-03-22T03:12:11;23.67;;;10.03;;
85312;SDS011;75717;50.496;7.560;2024-03-22T03:14:36;23.92;;;9.60;;
85312;SDS011;75717;50.496;7.560;2024-03-22T03:17:01;23.92;;;9.93;;
85312;SDS011;75717;50.496;7.560;2024-03-22T03:19:27;23.75;;;10.45;;
85312;SDS011;75717;50.496;7.560;2024-03-22T03:21:52;24.83;;;9.40;;
85312;SDS011;75717;50.496;7.560;2024-03-22T03:24:17;23.07;;;9.93;;
85312;SDS011;75717;50.496;7.560;2024-03-22T03:26:43;25.13;;;9.27;;
85312;SDS011;75717;50.496;7.560;2024-03-22T03:29:08;21.38;;;9.13;;
85312;SDS011;75717;50.496;7.560;2024-03-22T03:31:34;25.95;;;9.50;;
85312;SDS011;75717;50.496;7.560;2024-03-22T03:33:59;25.57;;;10.77;;
85312;SDS011;75717;50.496;7.560;2024-03-22T03:36:24;23.23;;;9.83;;
85312;SDS011;75717;50.496;7.560;2024-03-22T03:38:49;22.63;;;9.63;;
85312;SDS011;75717;50.496;7.560;2024-03-22T03:41:15;25.93;;;10.10;;
85312;SDS011;75717;50.496;7.560;2024-03-22T03:43:40;23.57;;;9.10;;
85312;SDS011;75717;50.496;7.560;2024-03-22T03:46:05;21.17;;;9.40;;
85312;SDS011;75717;50.496;7.560;2024-03-22T03:48:30;25.00;;;8.57;;
85312;SDS011;75717;50.496;7.560;2024-03-22T03:50:56;21.60;;;9.10;;
85312;SDS011;75717;50.496;7.560;2024-03-22T03:53:24;24.67;;;8.82;;
85312;SDS011;75717;50.496;7.560;2024-03-22T03:55:49;20.13;;;8.48;;
85312;SDS011;75717;50.496;7.560;2024-03-22T03:58:15;22.83;;;8.75;;
85312;SDS011;75717;50.496;7.560;2024-03-22T04:00:42;21.27;;;8.20;;
85312;SDS011;75717;50.496;7.560;2024-03-22T04:03:08;22.30;;;8.13;;
85312;SDS011;75717;50.496;7.560;2024-03-22T04:05:33;22.37;;;8.40;;
85312;SDS011;75717;50.496;7.560;2024-03-22T04:07:58;19.25;;;7.88;;
85312;SDS011;75717;50.496;7.560;2024-03-22T04:10:24;26.17;;;8.80;;
85312;SDS011;75717;50.496;7.560;2024-03-22T04:12:49;24.30;;;9.30;;
85312;SDS011;75717;50.496;7.560;2024-03-22T04:15:14;19.23;;;8.13;;
85312;SDS011;75717;50.496;7.560;2024-03-22T04:17:39;17.53;;;8.40;;
85312;SDS011;75717;50.496;7.560;2024-03-22T04:20:05;18.73;;;7.57;;
85312;SDS011;75717;50.496;7.560;2024-03-22T04:22:30;22.00;;;9.15;;
85312;SDS011;75717;50.496;7.560;2024-03-22T04:24:56;26.05;;;8.80;;
85312;SDS011;75717;50.496;7.560;2024-03-22T04:27:21;19.10;;;7.60;;
85312;SDS011;75717;50.496;7.560;2024-03-22T04:29:47;22.53;;;9.03;;
85312;SDS011;75717;50.496;7.560;2024-03-22T04:32:12;24.20;;;8.30;;
85312;SDS011;75717;50.496;7.560;2024-03-22T04:34:41;19.17;;;7.33;;
85312;SDS011;75717;50.496;7.560;2024-03-22T04:37:07;20.63;;;7.85;;
85312;SDS011;75717;50.496;7.560;2024-03-22T04:39:34;19.38;;;8.30;;
85312;SDS011;75717;50.496;7.560;2024-03-22T04:41:59;20.87;;;8.47;;
85312;SDS011;75717;50.496;7.560;2024-03-22T04:44:24;18.80;;;8.20;;
85312;SDS011;75717;50.496;7.560;2024-03-22T04:46:50;16.10;;;7.05;;
85312;SDS011;75717;50.496;7.560;2024-03-22T04:49:15;19.53;;;7.73;;
85312;SDS011;75717;50.496;7.560;2024-03-22T04:51:40;18.77;;;7.50;;
85312;SDS011;75717;50.496;7.560;2024-03-22T04:54:06;19.53;;;8.30;;
85312;SDS011;75717;50.496;7.560;2024-03-22T04:56:31;24.13;;;8.47;;
85312;SDS011;75717;50.496;7.560;2024-03-22T04:58:56;19.33;;;7.40;;
85312;SDS011;75717;50.496;7.560;2024-03-22T05:01:21;22.00;;;7.67;;
85312;SDS011;75717;50.496;7.560;2024-03-22T05:03:48;19.15;;;8.25;;
85312;SDS011;75717;50.496;7.560;2024-03-22T05:06:14;16.35;;;7.10;;
85312;SDS011;75717;50.496;7.560;2024-03-22T05:08:39;18.33;;;7.73;;
85312;SDS011;75717;50.496;7.560;2024-03-22T05:11:04;17.50;;;6.43;;
85312;SDS011;75717;50.496;7.560;2024-03-22T05:13:30;20.73;;;7.13;;
85312;SDS011;75717;50.496;7.560;2024-03-22T05:15:56;17.02;;;7.55;;
85312;SDS011;75717;50.496;7.560;2024-03-22T05:18:21;15.43;;;7.35;;
85312;SDS011;75717;50.496;7.560;2024-03-22T05:20:46;18.20;;;7.90;;
85312;SDS011;75717;50.496;7.560;2024-03-22T05:23:12;21.20;;;6.87;;
85312;SDS011;75717;50.496;7.560;2024-03-22T05:25:37;14.63;;;6.43;;
85312;SDS011;75717;50.496;7.560;2024-03-22T05:28:02;16.97;;;7.10;;
85312;SDS011;75717;50.496;7.560;2024-03-22T05:30:28;14.90;;;5.90;;
85312;SDS011;75717;50.496;7.560;2024-03-22T05:32:53;21.53;;;7.33;;
85312;SDS011;75717;50.496;7.560;2024-03-22T05:35:18;19.40;;;7.68;;
85312;SDS011;75717;50.496;7.560;2024-03-22T05:37:44;17.77;;;8.20;;
85312;SDS011;75717;50.496;7.560;2024-03-22T05:40:09;14.88;;;6.82;;
85312;SDS011;75717;50.496;7.560;2024-03-22T05:42:35;21.58;;;8.48;;
85312;SDS011;75717;50.496;7.560;2024-03-22T05:45:01;22.33;;;7.80;;
85312;SDS011;75717;50.496;7.560;2024-03-22T05:47:26;15.75;;;6.75;;
85312;SDS011;75717;50.496;7.560;2024-03-22T05:49:51;17.23;;;7.50;;
85312;SDS011;75717;50.496;7.560;2024-03-22T05:52:17;14.75;;;6.85;;
85312;SDS011;75717;50.496;7.560;2024-03-22T05:54:42;23.85;;;8.30;;
85312;SDS011;75717;50.496;7.560;2024-03-22T05:57:08;17.75;;;7.22;;
85312;SDS011;75717;50.496;7.560;2024-03-22T05:59:33;15.98;;;7.10;;
85312;SDS011;75717;50.496;7.560;2024-03-22T06:01:59;18.92;;;7.63;;
85312;SDS011;75717;50.496;7.560;2024-03-22T06:04:25;22.45;;;8.57;;
85312;SDS011;75717;50.496;7.560;2024-03-22T06:06:50;22.58;;;9.40;;
85312;SDS011;75717;50.496;7.560;2024-03-22T06:09:16;21.80;;;8.47;;
85312;SDS011;75717;50.496;7.560;2024-03-22T06:11:49;21.75;;;8.18;;
85312;SDS011;75717;50.496;7.560;2024-03-22T06:14:14;21.58;;;8.65;;
85312;SDS011;75717;50.496;7.560;2024-03-22T06:16:40;21.90;;;8.67;;
85312;SDS011;75717;50.496;7.560;2024-03-22T06:19:05;19.50;;;8.13;;
85312;SDS011;75717;50.496;7.560;2024-03-22T06:21:30;18.43;;;7.97;;
85312;SDS011;75717;50.496;7.560;2024-03-22T06:23:56;18.70;;;8.00;;
85312;SDS011;75717;50.496;7.560;2024-03-22T06:26:21;19.37;;;7.77;;
85312;SDS011;75717;50.496;7.560;2024-03-22T06:28:46;18.23;;;7.97;;
85312;SDS011;75717;50.496;7.560;2024-03-22T06:31:12;20.75;;;8.38;;
85312;SDS011;75717;50.496;7.560;2024-03-22T06:33:37;24.03;;;9.00;;
85312;SDS011;75717;50.496;7.560;2024-03-22T06:36:02;19.47;;;7.70;;
85312;SDS011;75717;50.496;7.560;2024-03-22T06:38:30;20.70;;;7.68;;
85312;SDS011;75717;50.496;7.560;2024-03-22T06:40:56;21.70;;;7.20;;
85312;SDS011;75717;50.496;7.560;2024-03-22T06:43:21;19.13;;;7.10;;
85312;SDS011;75717;50.496;7.560;2024-03-22T06:45:46;13.05;;;6.53;;
85312;SDS011;75717;50.496;7.560;2024-03-22T06:48:12;18.52;;;7.20;;
85312;SDS011;75717;50.496;7.560;2024-03-22T06:50:39;15.50;;;6.10;;
85312;SDS011;75717;50.496;7.560;2024-03-22T06:53:05;16.67;;;7.07;;
85312;SDS011;75717;50.496;7.560;2024-03-22T06:55:30;16.73;;;6.17;;
85312;SDS011;75717;50.496;7.560;2024-03-22T06:57:55;19.40;;;7.50;;
85312;SDS011;75717;50.496;7.560;2024-03-22T07:00:20;16.87;;;6.70;;
85312;SDS011;75717;50.496;7.560;2024-03-22T07:02:46;15.48;;;7.40;;
85312;SDS011;75717;50.496;7.560;2024-03-22T07:05:11;17.13;;;6.63;;
85312;SDS011;75717;50.496;7.560;2024-03-22T07:07:37;18.95;;;7.03;;
85312;SDS011;75717;50.496;7.560;2024-03-22T07:10:03;15.38;;;5.97;;
85312;SDS011;75717;50.496;7.560;2024-03-22T07:12:30;15.95;;;6.80;;
85312;SDS011;75717;50.496;7.560;2024-03-22T07:14:56;16.85;;;7.68;;
85312;SDS011;75717;50.496;7.560;2024-03-22T07:17:21;14.88;;;6.28;;
85312;SDS011;75717;50.496;7.560;2024-03-22T07:19:50;14.30;;;6.32;;
85312;SDS011;75717;50.496;7.560;2024-03-22T07:22:16;16.30;;;6.18;;
85312;SDS011;75717;50.496;7.560;2024-03-22T07:24:41;12.43;;;5.50;;
85312;SDS011;75717;50.496;7.560;2024-03-22T07:27:06;10.83;;;3.83;;
85312;SDS011;75717;50.496;7.560;2024-03-22T07:29:32;16.17;;;5.80;;
85312;SDS011;75717;50.496;7.560;2024-03-22T07:31:57;11.47;;;5.20;;
85312;SDS011;75717;50.496;7.560;2024-03-22T07:34:22;14.47;;;5.30;;
85312;SDS011;75717;50.496;7.560;2024-03-22T07:36:48;12.47;;;6.00;;
85312;SDS011;75717;50.496;7.560;2024-03-22T07:39:13;16.08;;;6.50;;
85312;SDS011;75717;50.496;7.560;2024-03-22T07:41:39;13.55;;;6.28;;
85312;SDS011;75717;50.496;7.560;2024-03-22T07:44:05;15.88;;;5.90;;
85312;SDS011;75717;50.496;7.560;2024-03-22T07:46:30;12.57;;;5.75;;
85312;SDS011;75717;50.496;7.560;2024-03-22T07:48:55;15.13;;;6.77;;
85312;SDS011;75717;50.496;7.560;2024-03-22T07:51:20;13.98;;;5.80;;
85312;SDS011;75717;50.496;7.560;2024-03-22T07:53:46;12.93;;;6.20;;
85312;SDS011;75717;50.496;7.560;2024-03-22T07:56:11;11.38;;;4.95;;
85312;SDS011;75717;50.496;7.560;2024-03-22T07:58:37;15.57;;;5.93;;
85312;SDS011;75717;50.496;7.560;2024-03-22T08:01:03;17.65;;;6.80;;
85312;SDS011;75717;50.496;7.560;2024-03-22T08:03:28;11.93;;;5.28;;
85312;SDS011;75717;50.496;7.560;2024-03-22T08:05:54;13.73;;;6.10;;
85312;SDS011;75717;50.496;7.560;2024-03-22T08:08:19;12.27;;;5.27;;
85312;SDS011;75717;50.496;7.560;2024-03-22T08:10:44;12.57;;;5.47;;
85312;SDS011;75717;50.496;7.560;2024-03-22T08:13:10;13.87;;;6.20;;
85312;SDS011;75717;50.496;7.560;2024-03-22T08:15:36;16.05;;;5.97;;
85312;SDS011;75717;50.496;7.560;2024-03-22T08:18:01;14.25;;;6.35;;
85312;SDS011;75717;50.496;7.560;2024-03-22T08:20:27;9.57;;;4.30;;
85312;SDS011;75717;50.496;7.560;2024-03-22T08:22:53;12.30;;;5.18;;
85312;SDS011;75717;50.496;7.560;2024-03-22T08:25:18;13.98;;;4.78;;
85312;SDS011;75717;50.496;7.560;2024-03-22T08:27:45;10.77;;;5.18;;
85312;SDS011;75717;50.496;7.560;2024-03-22T08:30:11;14.00;;;5.50;;
85312;SDS011;75717;50.496;7.560;2024-03-22T08:32:37;12.77;;;5.15;;
85312;SDS011;75717;50.496;7.560;2024-03-22T08:35:02;8.85;;;4.78;;
85312;SDS011;75717;50.496;7.560;2024-03-22T08:37:29;9.57;;;4.35;;
85312;SDS011;75717;50.496;7.560;2024-03-22T08:39:54;11.88;;;5.63;;
85312;SDS011;75717;50.496;7.560;2024-03-22T08:42:19;10.60;;;5.57;;
85312;SDS011;75717;50.496;7.560;2024-03-22T08:44:45;10.97;;;4.47;;
85312;SDS011;75717;50.496;7.560;2024-03-22T08:47:10;11.90;;;5.60;;
85312;SDS011;75717;50.496;7.560;2024-03-22T08:49:35;8.60;;;4.38;;
85312;SDS011;75717;50.496;7.560;2024-03-22T08:52:04;10.23;;;5.10;;
85312;SDS011;75717;50.496;7.560;2024-03-22T08:54:29;15.45;;;5.75;;
85312;SDS011;75717;50.496;7.560;2024-03-22T08:56:54;11.33;;;5.00;;
85312;SDS011;75717;50.496;7.560;2024-03-22T08:59:20;11.73;;;5.07;;
85312;SDS011;75717;50.496;7.560;2024-03-22T09:01:45;12.07;;;5.10;;
85312;SDS011;75717;50.496;7.560;2024-03-22T09:04:10;15.70;;;5.60;;
85312;SDS011;75717;50.496;7.560;2024-03-22T09:06:36;10.30;;;5.10;;
85312;SDS011;75717;50.496;7.560;2024-03-22T09:09:01;12.60;;;6.65;;
85312;SDS011;75717;50.496;7.560;2024-03-22T09:11:26;15.25;;;5.68;;
85312;SDS011;75717;50.496;7.560;2024-03-22T09:13:52;13.43;;;6.27;;
85312;SDS011;75717;50.496;7.560;2024-03-22T09:16:17;17.33;;;6.80;;
85312;SDS011;75717;50.496;7.560;2024-03-22T09:18:43;11.02;;;5.55;;
85312;SDS011;75717;50.496;7.560;2024-03-22T09:21:08;15.05;;;6.75;;
85312;SDS011;75717;50.496;7.560;2024-03-22T09:23:35;13.35;;;5.60;;
85312;SDS011;75717;50.496;7.560;2024-03-22T09:26:00;13.97;;;5.83;;
85312;SDS011;75717;50.496;7.560;2024-03-22T09:28:26;13.53;;;7.20;;
85312;SDS011;75717;50.496;7.560;2024-03-22T09:30:51;12.43;;;7.05;;
85312;SDS011;75717;50.496;7.560;2024-03-22T09:33:16;10.97;;;5.47;;
85312;SDS011;75717;50.496;7.560;2024-03-22T09:35:42;14.45;;;6.15;;
85312;SDS011;75717;50.496;7.560;2024-03-22T09:38:08;13.93;;;7.18;;
85312;SDS011;75717;50.496;7.560;2024-03-22T09:40:34;12.80;;;5.93;;
85312;SDS011;75717;50.496;7.560;2024-03-22T09:43:01;13.73;;;6.15;;
85312;SDS011;75717;50.496;7.560;2024-03-22T09:45:31;15.07;;;6.57;;
85312;SDS011;75717;50.496;7.560;2024-03-22T09:47:56;14.30;;;5.88;;
85312;SDS011;75717;50.496;7.560;2024-03-22T09:50:22;13.48;;;5.20;;
85312;SDS011;75717;50.496;7.560;2024-03-22T09:52:47;19.50;;;7.50;;
85312;SDS011;75717;50.496;7.560;2024-03-22T09:55:13;8.85;;;4.07;;
85312;SDS011;75717;50.496;7.560;2024-03-22T09:57:39;21.20;;;8.77;;
85312;SDS011;75717;50.496;7.560;2024-03-22T10:00:06;17.80;;;8.57;;
85312;SDS011;75717;50.496;7.560;2024-03-22T10:02:32;21.75;;;9.77;;
85312;SDS011;75717;50.496;7.560;2024-03-22T10:04:58;18.33;;;7.75;;
85312;SDS011;75717;50.496;7.560;2024-03-22T10:07:24;20.23;;;8.53;;
85312;SDS011;75717;50.496;7.560;2024-03-22T10:09:51;16.70;;;7.28;;
85312;SDS011;75717;50.496;7.560;2024-03-22T10:12:17;17.33;;;8.00;;
85312;SDS011;75717;50.496;7.560;2024-03-22T10:14:45;16.15;;;7.32;;
85312;SDS011;75717;50.496;7.560;2024-03-22T10:17:10;14.45;;;6.45;;
85312;SDS011;75717;50.496;7.560;2024-03-22T10:19:36;18.02;;;7.45;;
85312;SDS011;75717;50.496;7.560;2024-03-22T10:22:02;16.77;;;7.60;;
85312;SDS011;75717;50.496;7.560;2024-03-22T10:24:28;14.32;;;8.23;;
85312;SDS011;75717;50.496;7.560;2024-03-22T10:26:54;14.48;;;7.80;;
85312;SDS011;75717;50.496;7.560;2024-03-22T10:29:20;14.65;;;7.18;;
85312;SDS011;75717;50.496;7.560;2024-03-22T10:31:47;19.02;;;9.65;;
85312;SDS011;75717;50.496;7.560;2024-03-22T10:34:13;16.55;;;8.70;;
85312;SDS011;75717;50.496;7.560;2024-03-22T10:36:39;16.38;;;8.18;;
85312;SDS011;75717;50.496;7.560;2024-03-22T10:39:05;16.98;;;8.15;;
85312;SDS011;75717;50.496;7.560;2024-03-22T10:41:30;19.88;;;8.00;;
85312;SDS011;75717;50.496;7.560;2024-03-22T10:43:56;14.75;;;7.57;;
85312;SDS011;75717;50.496;7.560;2024-03-22T10:46:23;16.85;;;7.43;;
85312;SDS011;75717;50.496;7.560;2024-03-22T10:48:54;17.83;;;7.60;;
85312;SDS011;75717;50.496;7.560;2024-03-22T10:51:20;17.52;;;7.97;;
85312;SDS011;75717;50.496;7.560;2024-03-22T10:53:45;15.30;;;7.93;;
85312;SDS011;75717;50.496;7.560;2024-03-22T10:56:11;15.80;;;7.35;;
85312;SDS011;75717;50.496;7.560;2024-03-22T10:58:39;18.00;;;7.93;;
85312;SDS011;75717;50.496;7.560;2024-03-22T11:01:04;28.08;;;7.70;;
85312;SDS011;75717;50.496;7.560;2024-03-22T11:03:30;15.98;;;8.52;;
85312;SDS011;75717;50.496;7.560;2024-03-22T11:05:56;16.42;;;8.20;;
85312;SDS011;75717;50.496;7.560;2024-03-22T11:08:28;15.18;;;7.53;;
85312;SDS011;75717;50.496;7.560;2024-03-22T11:10:56;13.73;;;7.75;;
85312;SDS011;75717;50.496;7.560;2024-03-22T11:13:21;14.02;;;7.30;;
85312;SDS011;75717;50.496;7.560;2024-03-22T11:15:47;14.60;;;7.93;;
85312;SDS011;75717;50.496;7.560;2024-03-22T11:18:16;15.35;;;6.85;;
85312;SDS011;75717;50.496;7.560;2024-03-22T11:20:42;14.40;;;7.18;;
85312;SDS011;75717;50.496;7.560;2024-03-22T11:23:07;17.80;;;7.68;;
85312;SDS011;75717;50.496;7.560;2024-03-22T11:25:34;13.10;;;6.45;;
85312;SDS011;75717;50.496;7.560;2024-03-22T11:28:00;16.70;;;7.15;;
85312;SDS011;75717;50.496;7.560;2024-03-22T11:30:32;15.65;;;8.10;;
85312;SDS011;75717;50.496;7.560;2024-03-22T11:33:00;14.30;;;6.60;;
85312;SDS011;75717;50.496;7.560;2024-03-22T11:35:26;11.43;;;5.88;;
85312;SDS011;75717;50.496;7.560;2024-03-22T11:37:51;13.38;;;6.35;;
85312;SDS011;75717;50.496;7.560;2024-03-22T11:40:17;13.57;;;6.63;;
85312;SDS011;75717;50.496;7.560;2024-03-22T11:42:43;16.48;;;7.85;;
85312;SDS011;75717;50.496;7.560;2024-03-22T11:45:10;15.20;;;7.50;;
85312;SDS011;75717;50.496;7.560;2024-03-22T11:47:36;15.15;;;7.07;;
85312;SDS011;75717;50.496;7.560;2024-03-22T11:50:02;13.15;;;7.40;;
85312;SDS011;75717;50.496;7.560;2024-03-22T11:52:28;13.02;;;7.45;;
85312;SDS011;75717;50.496;7.560;2024-03-22T11:54:54;15.57;;;7.47;;
85312;SDS011;75717;50.496;7.560;2024-03-22T11:57:23;16.85;;;7.10;;
85312;SDS011;75717;50.496;7.560;2024-03-22T11:59:49;17.50;;;6.88;;
85312;SDS011;75717;50.496;7.560;2024-03-22T12:02:15;11.50;;;5.82;;
85312;SDS011;75717;50.496;7.560;2024-03-22T12:04:47;11.82;;;6.55;;
85312;SDS011;75717;50.496;7.560;2024-03-22T12:07:16;13.43;;;6.70;;
85312;SDS011;75717;50.496;7.560;2024-03-22T12:09:42;11.88;;;6.35;;
85312;SDS011;75717;50.496;7.560;2024-03-22T12:12:09;20.65;;;7.97;;
85312;SDS011;75717;50.496;7.560;2024-03-22T12:14:35;13.95;;;6.57;;
85312;SDS011;75717;50.496;7.560;2024-03-22T12:17:04;9.70;;;4.88;;
85312;SDS011;75717;50.496;7.560;2024-03-22T12:19:29;12.77;;;5.28;;
85312;SDS011;75717;50.496;7.560;2024-03-22T12:21:55;12.40;;;5.30;;
85312;SDS011;75717;50.496;7.560;2024-03-22T12:24:21;11.45;;;4.93;;
85312;SDS011;75717;50.496;7.560;2024-03-22T12:26:47;11.00;;;5.03;;
85312;SDS011;75717;50.496;7.560;2024-03-22T12:29:13;14.27;;;6.43;;
85312;SDS011;75717;50.496;7.560;2024-03-22T12:31:40;9.65;;;5.38;;
85312;SDS011;75717;50.496;7.560;2024-03-22T12:34:06;18.23;;;5.13;;
85312;SDS011;75717;50.496;7.560;2024-03-22T12:36:31;11.48;;;5.45;;
85312;SDS011;75717;50.496;7.560;2024-03-22T12:38:56;7.17;;;4.33;;
85312;SDS011;75717;50.496;7.560;2024-03-22T12:41:22;11.77;;;5.73;;
85312;SDS011;75717;50.496;7.560;2024-03-22T12:43:47;12.10;;;6.10;;
85312;SDS011;75717;50.496;7.560;2024-03-22T12:46:12;9.20;;;4.90;;
85312;SDS011;75717;50.496;7.560;2024-03-22T12:48:37;10.57;;;4.60;;
85312;SDS011;75717;50.496;7.560;2024-03-22T12:51:03;10.25;;;4.28;;
85312;SDS011;75717;50.496;7.560;2024-03-22T12:53:28;8.90;;;5.10;;
85312;SDS011;75717;50.496;7.560;2024-03-22T12:55:53;12.27;;;5.13;;
85312;SDS011;75717;50.496;7.560;2024-03-22T12:58:19;11.67;;;5.33;;
85312;SDS011;75717;50.496;7.560;2024-03-22T13:00:44;11.27;;;5.30;;
85312;SDS011;75717;50.496;7.560;2024-03-22T13:03:10;11.85;;;6.18;;
85312;SDS011;75717;50.496;7.560;2024-03-22T13:05:36;10.45;;;5.53;;
85312;SDS011;75717;50.496;7.560;2024-03-22T13:08:02;9.85;;;4.82;;
85312;SDS011;75717;50.496;7.560;2024-03-22T13:10:27;9.60;;;5.38;;
85312;SDS011;75717;50.496;7.560;2024-03-22T13:12:52;10.90;;;5.53;;
85312;SDS011;75717;50.496;7.560;2024-03-22T13:15:18;9.97;;;5.13;;
85312;SDS011;75717;50.496;7.560;2024-03-22T13:17:43;14.40;;;5.80;;
85312;SDS011;75717;50.496;7.560;2024-03-22T13:20:08;10.97;;;5.10;;
85312;SDS011;75717;50.496;7.560;2024-03-22T13:22:39;12.90;;;6.10;;
85312;SDS011;75717;50.496;7.560;2024-03-22T13:25:05;12.98;;;5.75;;
85312;SDS011;75717;50.496;7.560;2024-03-22T13:27:33;12.90;;;5.10;;
85312;SDS011;75717;50.496;7.560;2024-03-22T13:29:59;12.20;;;6.25;;
85312;SDS011;75717;50.496;7.560;2024-03-22T13:32:25;12.80;;;5.53;;
85312;SDS011;75717;50.496;7.560;2024-03-22T13:34:50;13.07;;;5.38;;
85312;SDS011;75717;50.496;7.560;2024-03-22T13:37:15;16.52;;;6.00;;
85312;SDS011;75717;50.496;7.560;2024-03-22T13:39:41;16.67;;;5.68;;
85312;SDS011;75717;50.496;7.560;2024-03-22T13:42:06;10.70;;;5.07;;
85312;SDS011;75717;50.496;7.560;2024-03-22T13:44:32;11.52;;;5.05;;
85312;SDS011;75717;50.496;7.560;2024-03-22T13:46:58;14.88;;;4.80;;
85312;SDS011;75717;50.496;7.560;2024-03-22T13:49:23;8.40;;;4.33;;
85312;SDS011;75717;50.496;7.560;2024-03-22T13:51:48;11.85;;;5.10;;
85312;SDS011;75717;50.496;7.560;2024-03-22T13:54:14;9.68;;;4.70;;
85312;SDS011;75717;50.496;7.560;2024-03-22T13:56:40;8.95;;;4.60;;
85312;SDS011;75717;50.496;7.560;2024-03-22T13:59:05;8.90;;;4.70;;
85312;SDS011;75717;50.496;7.560;2024-03-22T14:01:31;11.02;;;5.18;;
85312;SDS011;75717;50.496;7.560;2024-03-22T14:03:57;8.25;;;5.10;;
85312;SDS011;75717;50.496;7.560;2024-03-22T14:06:22;9.53;;;4.50;;
85312;SDS011;75717;50.496;7.560;2024-03-22T14:08:47;10.10;;;4.70;;
85312;SDS011;75717;50.496;7.560;2024-03-22T14:11:13;12.00;;;4.57;;
85312;SDS011;75717;50.496;7.560;2024-03-22T14:13:38;8.73;;;3.73;;
85312;SDS011;75717;50.496;7.560;2024-03-22T14:16:03;14.75;;;4.78;;
85312;SDS011;75717;50.496;7.560;2024-03-22T14:18:30;9.43;;;4.10;;
85312;SDS011;75717;50.496;7.560;2024-03-22T14:20:55;7.45;;;4.57;;
85312;SDS011;75717;50.496;7.560;2024-03-22T14:23:20;11.50;;;4.93;;